Tonantins, Brazil
Current Conditions -  °F | °C
As of 4:00 PM on Tuesday 21 Oct 2014 (Local Time) from SKLT Reporting Station
Broken Clouds Broken Clouds  
Wind Chill: 79°   Ceiling: 1200
Heat Index: 82°   Visibility: 6mi
Dew Point: 75°   Wind: 5mph
Humidity: 89%   Direction: 250°WSW
Pressure: 29.86"   Gusts: NA
Location:  2.83°S, 67.81°W
Report Text: SKLT 212000Z 25004KT 9999 BKN012 SCT200 26/24 A2986 RMK AD OPRIMC
Loading
Personal Weather Stations






























Interactive Weather Map
Tropical Storm Tracking
New forecast layout! Learn more

10-Day Weather Forecast

Advertisements
Track Severe Weather on mobile